Port Sulphur, LA (70083)

10:36 PM CDT on April 29, 2017 (GMT -0500)
Crescent Excavation | | Change Station
Active Advisory: Coastal Flood Advisory Active Notice: Coastal Flood Advisory

Elev -3 ft 29.66 °N, 90.00 °W | Updated 8 seconds ago

Overcast
Overcast
78.4 °F
Feels Like 81 °F
N
22.0
Wind Variable Wind from SSE
Gusts 24.0 mph

Today
High -- | Low -- °F
--% Chance of Precip.
Yesterday
High -- | Low -- °F
Precip. -- in
Pressure 29.91 in
Visibility 7.0 miles
Clouds Mostly Cloudy 1200 ft
Overcast 1800 ft
Heat Index 81 °F
Dew Point 75 °F
Humidity 90%
Rainfall 0.00 in
Snow Depth Not available.
6:18 AM 7:34 PM
Waxing Crescent, 19% visible
METAR KBVE 300251Z AUTO 13012G24KT 7SM BKN012 OVC018 26/24 A2991 RMK AO2 PK WND 13032/0220 SLP128 T02560239 55002
Pressure 29.91 in
Visibility 7.0 miles
Clouds Mostly Cloudy 1200 ft
Overcast 1800 ft
Heat Index 81 °F
Dew Point 75 °F
Humidity 90%
Rainfall 0.00 in
Snow Depth Not available.
6:18 AM 7:34 PM
Waxing Crescent, 19% visible
METAR KBVE 300251Z AUTO 13012G24KT 7SM BKN012 OVC018 26/24 A2991 RMK AO2 PK WND 13032/0220 SLP128 T02560239 55002

Get Your Daily Forecast Email!

Thanks for signing up!

Be on the lookout for a verification email in your inbox.

You'll start receiving severe weather alerts in your inbox..

×

10-Day Weather Forecast

Almanac

Astronomy

Apr. 29, 2017 Rise Set
Actual Time
Civil Twilight
Nautical Twilight
Astronomical Twilight
Moon
Length of Visible Light
Length of Day
Tomorrow will be .
, % of the Moon is Illuminated

Today's Extremes

State Highs State Lows

Community

WunderPhotos

WunderBlog® & News

Nearby

Air Quality

  Air Quality AQ Index Pollutant
Not available.

Snow Depth

Station Depth Elevation

Earthquake Activity

City Distance Mag. Time & Date
Minimum magnitude displayed is 2.5.

Coastal Water Temperatures

Place Temperature

Stations

Nearby Weather Stations

Station Location Temp. Windchill Dew Point Humidity Wind Precip. Elev Updated Type
                   

Watches & Warnings

Coastal Flood Advisory
Issued: 3:52 PM CDT Apr. 29, 2017 – National Weather Service

... Coastal flood advisory remains in effect until midnight CDT
Sunday night...

* coastal flooding... tides 1 to 2 feet above normal Sunday.

* Timing... astronomical high tides will be in the early afternoon
hours Sunday.

* Impacts... minor flooding of low lying areas and access roads
near tidal lakes... bays and inlets as well as the open coast
outside the hurricane protection levee systems.

Precautionary/preparedness actions...

A coastal flood advisory indicates that onshore winds and tides
will combine to generate flooding of low areas along the shore.